Time,TemperatureF,DewpointF,PressureIn,WindDirection,WindDirectionDegrees,WindSpeedMPH,WindSpeedGustMPH,Humidity,HourlyPrecipIn,Conditions,Clouds,dailyrainin,SoftwareType,DateUTC
2013-10-05 00:00:00,58.0,43.7,30.26,ENE,67,0.0,8.0,59,0.00,,,0.00,Weather View 32 v70,2013-10-05 04:00:00,
2013-10-05 00:01:00,58.0,43.7,30.26,NNE,22,2.0,8.0,59,0.00,,,0.00,Weather View 32 v70,2013-10-05 04:01:00,
2013-10-05 00:02:00,58.0,44.6,30.26,ESE,112,2.0,8.0,61,0.00,,,0.00,Weather View 32 v70,2013-10-05 04:02:00,
2013-10-05 00:07:00,58.0,44.6,30.26,ENE,67,1.0,8.0,61,0.00,,,0.00,Weather View 32 v70,2013-10-05 04:07:00,
2013-10-05 00:12:00,58.0,44.6,30.26,ESE,112,0.0,8.0,61,0.00,,,0.00,Weather View 32 v70,2013-10-05 04:12:00,
2013-10-05 00:17:00,58.0,44.6,30.26,East,90,1.0,8.0,61,0.00,,,0.00,Weather View 32 v70,2013-10-05 04:17:00,
2013-10-05 00:22:00,58.0,44.2,30.26,East,90,2.0,8.0,60,0.00,,,0.00,Weather View 32 v70,2013-10-05 04:22:00,
2013-10-05 00:27:00,58.0,44.6,30.26,East,90,2.0,7.0,61,0.00,,,0.00,Weather View 32 v70,2013-10-05 04:27:00,
2013-10-05 00:32:00,58.0,44.6,30.26,ESE,112,3.0,7.0,61,0.00,,,0.00,Weather View 32 v70,2013-10-05 04:32:00,
2013-10-05 00:37:00,58.0,44.6,30.26,ESE,112,5.0,7.0,61,0.00,,,0.00,Weather View 32 v70,2013-10-05 04:37:00,
2013-10-05 00:42:00,58.0,44.6,30.26,East,90,2.0,7.0,61,0.00,,,0.00,Weather View 32 v70,2013-10-05 04:42:00,
2013-10-05 00:47:00,58.0,45.0,30.26,ESE,112,0.0,8.0,62,0.00,,,0.00,Weather View 32 v70,2013-10-05 04:47:00,
2013-10-05 00:52:00,58.0,44.6,30.26,East,90,3.0,8.0,61,0.00,,,0.00,Weather View 32 v70,2013-10-05 04:52:00,
2013-10-05 00:57:00,58.0,45.0,30.26,ESE,112,5.0,8.0,62,0.00,,,0.00,Weather View 32 v70,2013-10-05 04:57:00,
2013-10-05 01:04:00,58.0,45.0,30.26,NNE,22,4.0,8.0,62,0.00,,,0.00,Weather View 32 v70,2013-10-05 05:04:00,
2013-10-05 01:09:00,58.0,43.3,30.26,ESE,112,3.0,8.0,58,0.00,,,0.00,Weather View 32 v70,2013-10-05 05:09:00,
2013-10-05 01:14:00,58.0,45.0,30.26,ESE,112,4.0,10.0,62,0.00,,,0.00,Weather View 32 v70,2013-10-05 05:14:00,
2013-10-05 01:19:00,58.0,43.3,30.26,ESE,112,1.0,10.0,58,0.00,,,0.00,Weather View 32 v70,2013-10-05 05:19:00,
2013-10-05 01:24:00,58.0,45.0,30.26,East,90,0.0,10.0,62,0.00,,,0.00,Weather View 32 v70,2013-10-05 05:24:00,
2013-10-05 01:29:00,58.0,43.7,30.27,NNE,22,0.0,10.0,59,0.00,,,0.00,Weather View 32 v70,2013-10-05 05:29:00,
2013-10-05 01:34:00,58.0,45.0,30.27,East,90,2.0,10.0,62,0.00,,,0.00,Weather View 32 v70,2013-10-05 05:34:00,
2013-10-05 01:39:00,58.0,43.7,30.27,East,90,5.0,10.0,59,0.00,,,0.00,Weather View 32 v70,2013-10-05 05:39:00,
2013-10-05 01:44:00,58.0,45.0,30.27,ESE,112,3.0,10.0,62,0.00,,,0.00,Weather View 32 v70,2013-10-05 05:44:00,
2013-10-05 01:49:00,58.0,43.3,30.26,ESE,112,5.0,10.0,58,0.00,,,0.00,Weather View 32 v70,2013-10-05 05:49:00,
2013-10-05 01:54:00,58.0,44.6,30.26,NNE,22,2.0,10.0,61,0.00,,,0.00,Weather View 32 v70,2013-10-05 05:54:00,
2013-10-05 01:59:00,58.0,48.2,30.26,NNE,22,4.0,10.0,70,0.00,,,0.00,Weather View 32 v70,2013-10-05 05:59:00,
2013-10-05 02:04:00,58.0,44.6,30.26,East,90,0.0,10.0,61,0.00,,,0.00,Weather View 32 v70,2013-10-05 06:04:00,
2013-10-05 02:09:00,58.0,43.3,30.26,East,90,0.0,10.0,58,0.00,,,0.00,Weather View 32 v70,2013-10-05 06:09:00,
2013-10-05 02:14:00,58.0,44.6,30.26,East,90,3.0,8.0,61,0.00,,,0.00,Weather View 32 v70,2013-10-05 06:14:00,
2013-10-05 02:19:00,58.0,43.7,30.26,NNE,22,4.0,8.0,59,0.00,,,0.00,Weather View 32 v70,2013-10-05 06:19:00,
2013-10-05 02:24:00,58.0,45.4,30.26,East,90,0.0,8.0,63,0.00,,,0.00,Weather View 32 v70,2013-10-05 06:24:00,
2013-10-05 02:29:00,58.0,43.3,30.26,East,90,2.0,8.0,58,0.00,,,0.00,Weather View 32 v70,2013-10-05 06:29:00,
2013-10-05 02:34:00,58.0,45.0,30.26,ENE,67,2.0,8.0,62,0.00,,,0.00,Weather View 32 v70,2013-10-05 06:34:00,
2013-10-05 02:39:00,58.0,43.3,30.26,East,90,2.0,8.0,58,0.00,,,0.00,Weather View 32 v70,2013-10-05 06:39:00,
2013-10-05 02:44:00,58.0,45.0,30.26,ENE,67,3.0,8.0,62,0.00,,,0.00,Weather View 32 v70,2013-10-05 06:44:00,
2013-10-05 02:49:00,58.0,43.3,30.26,East,90,5.0,8.0,58,0.00,,,0.00,Weather View 32 v70,2013-10-05 06:49:00,
2013-10-05 02:54:00,58.0,44.6,30.26,North,360,2.0,8.0,61,0.00,,,0.00,Weather View 32 v70,2013-10-05 06:54:00,
2013-10-05 02:59:00,58.0,47.9,30.26,NNE,22,2.0,8.0,69,0.00,,,0.00,Weather View 32 v70,2013-10-05 06:59:00,
2013-10-05 03:04:00,58.0,44.6,30.26,NNE,22,1.0,8.0,61,0.00,,,0.00,Weather View 32 v70,2013-10-05 07:04:00,
2013-10-05 03:09:00,58.0,42.8,30.26,ENE,67,3.0,8.0,57,0.00,,,0.00,Weather View 32 v70,2013-10-05 07:09:00,
2013-10-05 03:14:00,58.0,44.6,30.26,ESE,112,4.0,8.0,61,0.00,,,0.00,Weather View 32 v70,2013-10-05 07:14:00,
2013-10-05 03:19:00,58.0,42.8,30.26,ESE,112,1.0,8.0,57,0.00,,,0.00,Weather View 32 v70,2013-10-05 07:19:00,
2013-10-05 03:24:00,58.0,44.2,30.26,ENE,67,1.0,8.0,60,0.00,,,0.00,Weather View 32 v70,2013-10-05 07:24:00,
2013-10-05 03:29:00,58.0,42.4,30.26,ESE,112,1.0,8.0,56,0.00,,,0.00,Weather View 32 v70,2013-10-05 07:29:00,
2013-10-05 03:34:00,58.0,44.2,30.26,ENE,67,0.0,7.0,60,0.00,,,0.00,Weather View 32 v70,2013-10-05 07:34:00,
2013-10-05 03:39:00,58.0,42.4,30.26,ENE,67,0.0,7.0,56,0.00,,,0.00,Weather View 32 v70,2013-10-05 07:39:00,
2013-10-05 03:44:00,58.0,44.2,30.26,East,90,3.0,7.0,60,0.00,,,0.00,Weather View 32 v70,2013-10-05 07:44:00,
2013-10-05 03:49:00,58.0,42.4,30.25,ENE,67,5.0,7.0,56,0.00,,,0.00,Weather View 32 v70,2013-10-05 07:49:00,
2013-10-05 03:54:00,58.0,44.2,30.25,ENE,67,6.0,10.0,60,0.00,,,0.00,Weather View 32 v70,2013-10-05 07:54:00,
2013-10-05 03:59:00,58.0,42.4,30.26,East,90,6.0,10.0,56,0.00,,,0.00,Weather View 32 v70,2013-10-05 07:59:00,
2013-10-05 04:04:00,58.0,43.7,30.26,NNE,22,3.0,10.0,59,0.00,,,0.00,Weather View 32 v70,2013-10-05 08:04:00,
2013-10-05 04:09:00,58.0,41.9,30.26,NNE,22,0.0,10.0,55,0.00,,,0.00,Weather View 32 v70,2013-10-05 08:09:00,
2013-10-05 04:14:00,58.0,43.7,30.26,East,90,3.0,10.0,59,0.00,,,0.00,Weather View 32 v70,2013-10-05 08:14:00,
2013-10-05 04:19:00,58.0,41.9,30.26,ESE,112,5.0,10.0,55,0.00,,,0.00,Weather View 32 v70,2013-10-05 08:19:00,
2013-10-05 04:24:00,58.0,43.7,30.26,NNE,22,4.0,10.0,59,0.00,,,0.00,Weather View 32 v70,2013-10-05 08:24:00,
2013-10-05 04:29:00,58.0,41.9,30.26,ESE,112,5.0,10.0,55,0.00,,,0.00,Weather View 32 v70,2013-10-05 08:29:00,
2013-10-05 04:34:00,58.0,43.7,30.26,ESE,112,6.0,10.0,59,0.00,,,0.00,Weather View 32 v70,2013-10-05 08:34:00,
2013-10-05 04:39:00,58.0,41.9,30.25,East,90,4.0,10.0,55,0.00,,,0.00,Weather View 32 v70,2013-10-05 08:39:00,
2013-10-05 04:44:00,58.0,43.7,30.25,East,90,0.0,10.0,59,0.00,,,0.00,Weather View 32 v70,2013-10-05 08:44:00,
2013-10-05 04:49:00,58.0,42.4,30.26,East,90,2.0,10.0,56,0.00,,,0.00,Weather View 32 v70,2013-10-05 08:49:00,
2013-10-05 04:54:00,58.0,43.7,30.26,ESE,112,3.0,9.0,59,0.00,,,0.00,Weather View 32 v70,2013-10-05 08:54:00,
2013-10-05 04:59:00,58.0,42.4,30.26,ESE,112,2.0,9.0,56,0.00,,,0.00,Weather View 32 v70,2013-10-05 08:59:00,
2013-10-05 05:04:00,58.0,44.2,30.26,ESE,112,1.0,9.0,60,0.00,,,0.00,Weather View 32 v70,2013-10-05 09:04:00,
2013-10-05 05:09:00,58.0,42.4,30.25,East,90,5.0,9.0,56,0.00,,,0.00,Weather View 32 v70,2013-10-05 09:09:00,
2013-10-05 05:14:00,58.0,44.2,30.25,ENE,67,5.0,9.0,60,0.00,,,0.00,Weather View 32 v70,2013-10-05 09:14:00,
2013-10-05 05:19:00,58.0,42.8,30.26,ENE,67,0.0,9.0,57,0.00,,,0.00,Weather View 32 v70,2013-10-05 09:19:00,
2013-10-05 05:24:00,58.0,44.2,30.26,ENE,67,4.0,9.0,60,0.00,,,0.00,Weather View 32 v70,2013-10-05 09:24:00,
2013-10-05 05:29:00,58.0,42.8,30.26,NNE,22,0.0,9.0,57,0.00,,,0.00,Weather View 32 v70,2013-10-05 09:29:00,
2013-10-05 05:34:00,58.0,44.2,30.26,NE,45,0.0,9.0,60,0.00,,,0.00,Weather View 32 v70,2013-10-05 09:34:00,
2013-10-05 05:39:00,58.0,42.4,30.27,NNE,22,2.0,7.0,56,0.00,,,0.00,Weather View 32 v70,2013-10-05 09:39:00,
2013-10-05 05:44:00,58.0,44.2,30.27,NE,45,0.0,7.0,60,0.00,,,0.00,Weather View 32 v70,2013-10-05 09:44:00,
2013-10-05 05:49:00,58.0,42.8,30.27,ENE,67,0.0,7.0,57,0.00,,,0.00,Weather View 32 v70,2013-10-05 09:49:00,
2013-10-05 05:54:00,58.0,44.6,30.27,NE,45,6.0,7.0,61,0.00,,,0.00,Weather View 32 v70,2013-10-05 09:54:00,
2013-10-05 06:00:00,58.0,42.8,30.27,ENE,67,4.0,8.0,57,0.00,,,0.00,Weather View 32 v70,2013-10-05 10:00:00,
2013-10-05 06:04:00,58.0,44.6,30.27,NNE,22,0.0,8.0,61,0.00,,,0.00,Weather View 32 v70,2013-10-05 10:04:00,
2013-10-05 06:09:00,58.0,43.3,30.28,NE,45,0.0,8.0,58,0.00,,,0.00,Weather View 32 v70,2013-10-05 10:09:00,
2013-10-05 06:14:00,58.0,44.6,30.28,NNE,22,5.0,8.0,61,0.00,,,0.00,Weather View 32 v70,2013-10-05 10:14:00,
2013-10-05 06:19:00,58.0,43.3,30.28,NNE,22,2.0,8.0,58,0.00,,,0.00,Weather View 32 v70,2013-10-05 10:19:00,
2013-10-05 06:24:00,58.0,44.6,30.28,NNE,22,3.0,8.0,61,0.00,,,0.00,Weather View 32 v70,2013-10-05 10:24:00,
2013-10-05 06:29:00,58.0,43.3,30.28,NNE,22,0.0,8.0,58,0.00,,,0.00,Weather View 32 v70,2013-10-05 10:29:00,
2013-10-05 06:34:00,58.0,45.0,30.28,NE,45,1.0,8.0,62,0.00,,,0.00,Weather View 32 v70,2013-10-05 10:34:00,
2013-10-05 06:39:00,58.0,43.3,30.28,ENE,67,0.0,8.0,58,0.00,,,0.00,Weather View 32 v70,2013-10-05 10:39:00,
2013-10-05 06:44:00,58.0,45.0,30.28,ENE,67,0.0,8.0,62,0.00,,,0.00,Weather View 32 v70,2013-10-05 10:44:00,
2013-10-05 06:49:00,58.0,43.7,30.28,ENE,67,0.0,8.0,59,0.00,,,0.00,Weather View 32 v70,2013-10-05 10:49:00,
2013-10-05 06:54:00,58.0,45.4,30.28,ENE,67,0.0,8.0,63,0.00,,,0.00,Weather View 32 v70,2013-10-05 10:54:00,
2013-10-05 06:59:00,58.0,43.7,30.28,NNE,22,6.0,8.0,59,0.00,,,0.00,Weather View 32 v70,2013-10-05 10:59:00,
2013-10-05 07:04:00,58.0,45.4,30.28,NNE,22,2.0,8.0,63,0.00,,,0.00,Weather View 32 v70,2013-10-05 11:04:00,
2013-10-05 07:09:00,58.0,43.7,30.28,NE,45,2.0,8.0,59,0.00,,,0.00,Weather View 32 v70,2013-10-05 11:09:00,
2013-10-05 07:14:00,58.0,45.4,30.28,East,90,5.0,10.0,63,0.00,,,0.00,Weather View 32 v70,2013-10-05 11:14:00,
2013-10-05 07:19:00,58.0,43.7,30.28,NNE,22,4.0,10.0,59,0.00,,,0.00,Weather View 32 v70,2013-10-05 11:19:00,
2013-10-05 07:24:00,58.0,45.4,30.28,NNW,337,1.0,10.0,63,0.00,,,0.00,Weather View 32 v70,2013-10-05 11:24:00,
2013-10-05 07:30:00,58.0,43.7,30.29,East,90,0.0,10.0,59,0.00,,,0.00,Weather View 32 v70,2013-10-05 11:30:00,
2013-10-05 07:34:00,58.0,45.4,30.29,ENE,67,2.0,10.0,63,0.00,,,0.00,Weather View 32 v70,2013-10-05 11:34:00,
2013-10-05 07:39:00,58.0,43.7,30.29,NNE,22,0.0,10.0,59,0.00,,,0.00,Weather View 32 v70,2013-10-05 11:39:00,
2013-10-05 07:44:00,58.0,45.4,30.29,East,90,1.0,10.0,63,0.00,,,0.00,Weather View 32 v70,2013-10-05 11:44:00,
2013-10-05 07:49:00,58.0,43.7,30.28,NNW,337,3.0,10.0,59,0.00,,,0.00,Weather View 32 v70,2013-10-05 11:49:00,
2013-10-05 07:54:00,58.0,45.4,30.28,NE,45,4.0,10.0,63,0.00,,,0.00,Weather View 32 v70,2013-10-05 11:54:00,
2013-10-05 08:00:00,58.0,43.7,30.28,ENE,67,6.0,10.0,59,0.00,,,0.00,Weather View 32 v70,2013-10-05 12:00:00,
2013-10-05 08:05:00,58.0,45.0,30.28,ENE,67,0.0,10.0,62,0.00,,,0.00,Weather View 32 v70,2013-10-05 12:05:00,